Portada
METAR-TAF:

METAR-TAF

Aeroports :

Thoothukudi, Índia

latitud: 8-43-27N, longitud: 78-01-33E, altitud: 39 m

Observació

L'informe es va fer fa 1 hora i 11 minuts, a les 12:00 UTC
Vent 8 kt del Est
Temperatura 30°C
Humitat 66%
Pressió 1008 hPa
Visibilitat: 4000 m
Núvols disperses a una alçada de 2000 ft
Escasses núvols a una alçada de 2500 ft, Cumulus congestus.
Núvols disperses a una alçada de 10000 ft
calitja

METAR: VOTK 021200Z 09008KT 4000 HZ SCT020 FEW025TCU SCT100 30/23 Q1008 NOSIG

Hora: 18:41 (13:11 UTC)


TAF: manca

Observacions i pronòstics meteorològics de més de 4000 aeroports (METAR i TAF).

Les estacions disponibles són els punts grocs i vermells al mapa.

Posi el ratolí al punt desitjat per veure el nom de l'estació.

Feu clic per veure les observacions i els pronòstics meteorològics.

Per canviar el mapa: feu clic els botons verds amb una creu de color negre per apropar; al botó verd amb un guió per allunyar la imatge; o en les fletxes verdes per a mapes adjacents.


METAR-TAF: